Terminal Aerodrome Forecast
Issued by NWS

Home | Current Version | Previous Version | Text Only | Print | Product List | Glossary On
Versions: 1 2 3 4 5 6 7 8 9 10 11 12 13 14 15 16
000
FTUS41 KRNK 240600 RRA
TAFBCB
TAF
KBCB 240600Z 2406/2506 07009KT 3SM +RA SCT003 OVC008
     FM250000 06010KT 3SM RA BR OVC003=

USA.gov is the U.S. government's official web portal to all federal, state and local government web resources and services.